createdAt,value
2018-04-23T00:01:19.834Z,42.00
2018-04-23T00:03:46.220Z,42.30
2018-04-23T00:06:12.615Z,42.20
2018-04-23T00:08:39.071Z,42.20
2018-04-23T00:11:05.520Z,42.20
2018-04-23T00:13:32.007Z,42.20
2018-04-23T00:15:58.413Z,41.90
2018-04-23T00:18:24.858Z,41.80
2018-04-23T00:20:51.276Z,42.10
2018-04-23T00:23:17.715Z,41.60
2018-04-23T00:25:44.144Z,42.00
2018-04-23T00:28:10.619Z,42.20
2018-04-23T00:30:37.731Z,42.60
2018-04-23T00:33:04.203Z,42.50
2018-04-23T00:35:31.309Z,42.30
2018-04-23T00:37:57.739Z,42.20
2018-04-23T00:40:24.143Z,42.40
2018-04-23T00:42:50.546Z,42.80
2018-04-23T00:45:17.664Z,43.10
2018-04-23T00:47:44.086Z,43.20
2018-04-23T00:50:10.435Z,43.40
2018-04-23T00:52:36.818Z,43.40
2018-04-23T00:55:03.255Z,43.30
2018-04-23T00:57:29.699Z,43.40
2018-04-23T00:59:56.077Z,44.00
2018-04-23T01:02:23.184Z,44.00
2018-04-23T01:04:49.585Z,44.00
2018-04-23T01:07:15.971Z,44.00
2018-04-23T01:09:42.339Z,44.10
2018-04-23T01:12:08.740Z,44.20
2018-04-23T01:14:35.123Z,44.10
2018-04-23T01:17:01.499Z,44.00
2018-04-23T01:19:28.615Z,44.10
2018-04-23T01:21:55.018Z,44.00
2018-04-23T01:24:21.412Z,44.50
2018-04-23T01:26:47.839Z,44.40
2018-04-23T01:29:15.642Z,44.70
2018-04-23T01:31:42.045Z,44.80
2018-04-23T01:34:09.223Z,45.00
2018-04-23T01:36:35.628Z,45.00
2018-04-23T01:39:02.828Z,45.40
2018-04-23T01:41:29.239Z,45.40
2018-04-23T01:43:55.652Z,45.40
2018-04-23T01:46:22.775Z,45.30
2018-04-23T01:48:49.948Z,45.20
2018-04-23T01:51:16.323Z,45.20
2018-04-23T01:53:42.697Z,45.50
2018-04-23T01:56:09.872Z,45.80
2018-04-23T01:58:36.241Z,45.70
2018-04-23T02:01:02.670Z,45.90
2018-04-23T02:03:29.053Z,46.40
2018-04-23T02:05:55.477Z,46.50
2018-04-23T02:08:21.852Z,46.30
2018-04-23T02:10:48.289Z,46.30
2018-04-23T02:13:14.640Z,46.50
2018-04-23T02:15:41.023Z,46.60
2018-04-23T02:18:07.432Z,46.90
2018-04-23T02:20:34.629Z,46.90
2018-04-23T02:23:01.015Z,46.90
2018-04-23T02:25:27.392Z,46.90
2018-04-23T02:27:53.802Z,46.90
2018-04-23T02:30:20.149Z,47.30
2018-04-23T02:32:46.565Z,46.70
2018-04-23T02:35:12.928Z,46.50
2018-04-23T02:37:39.346Z,46.80
2018-04-23T02:40:05.729Z,46.60
2018-04-23T02:42:32.120Z,46.50
2018-04-23T02:44:58.461Z,46.50
2018-04-23T02:47:24.822Z,46.00
2018-04-23T02:49:51.200Z,46.30
2018-04-23T02:52:17.537Z,46.10
2018-04-23T02:54:43.988Z,46.60
2018-04-23T02:57:11.186Z,46.90
2018-04-23T02:59:37.625Z,46.90
2018-04-23T03:02:03.983Z,46.80
2018-04-23T03:04:30.420Z,46.70
2018-04-23T03:06:56.848Z,46.50
2018-04-23T03:09:23.256Z,46.60
2018-04-23T03:11:49.665Z,47.00
2018-04-23T03:14:16.121Z,47.10
2018-04-23T03:16:42.502Z,46.80
2018-04-23T03:19:08.921Z,47.20
2018-04-23T03:21:36.072Z,46.90
2018-04-23T03:24:02.481Z,46.90
2018-04-23T03:26:28.850Z,47.00
2018-04-23T03:28:55.240Z,47.00
2018-04-23T03:31:21.639Z,46.80
2018-04-23T03:33:48.037Z,46.80
2018-04-23T03:36:15.216Z,46.90
2018-04-23T03:38:41.596Z,46.90
2018-04-23T03:41:08.042Z,46.90
2018-04-23T03:43:34.480Z,47.30
2018-04-23T03:46:01.631Z,47.10
2018-04-23T03:48:28.013Z,47.10
2018-04-23T03:50:54.435Z,47.00
2018-04-23T03:53:20.804Z,47.60
2018-04-23T03:55:47.215Z,46.80
2018-04-23T03:58:13.588Z,46.90
2018-04-23T04:00:40.001Z,46.80
2018-04-23T04:03:06.420Z,46.90
2018-04-23T04:05:32.790Z,46.90
2018-04-23T04:07:59.243Z,47.00
2018-04-23T04:10:25.633Z,46.80
2018-04-23T04:13:10.345Z,47.00
2018-04-23T04:15:54.924Z,46.80
2018-04-23T04:18:40.571Z,46.70
2018-04-23T04:21:06.923Z,46.40
2018-04-23T04:23:33.316Z,46.10
2018-04-23T04:25:59.722Z,45.60
2018-04-23T04:28:26.871Z,44.80
2018-04-23T04:30:54.020Z,45.00
2018-04-23T04:33:21.200Z,45.10
2018-04-23T04:35:47.621Z,45.20
2018-04-23T04:38:14.032Z,45.40
2018-04-23T04:40:41.257Z,45.60
2018-04-23T04:43:07.652Z,45.50
2018-04-23T04:45:34.056Z,45.80
2018-04-23T04:48:00.433Z,45.90
2018-04-23T04:50:27.592Z,46.40
2018-04-23T04:52:54.033Z,46.40
2018-04-23T04:55:20.491Z,46.30
2018-04-23T04:57:47.622Z,46.60
2018-04-23T05:00:14.037Z,46.60
2018-04-23T05:02:40.396Z,47.30
2018-04-23T05:05:06.871Z,46.50
2018-04-23T05:07:33.264Z,46.60
2018-04-23T05:09:59.685Z,46.60
2018-04-23T05:12:26.047Z,46.60
2018-04-23T05:14:52.459Z,46.80
2018-04-23T05:17:18.937Z,47.00
2018-04-23T05:19:52.184Z,47.40
2018-04-23T05:22:19.283Z,47.50
2018-04-23T05:24:45.781Z,47.50
2018-04-23T05:27:13.217Z,47.30
2018-04-23T05:29:39.750Z,47.40
2018-04-23T05:32:06.867Z,47.20
2018-04-23T05:34:33.336Z,47.20
2018-04-23T05:36:59.839Z,47.00
2018-04-23T05:39:26.303Z,47.00
2018-04-23T05:41:52.738Z,46.90
2018-04-23T05:44:19.203Z,46.60
2018-04-23T05:46:45.673Z,46.40
2018-04-23T05:49:19.042Z,46.10
2018-04-23T05:51:45.435Z,46.10
2018-04-23T05:54:11.855Z,46.20
2018-04-23T05:56:38.281Z,45.30
2018-04-23T05:59:04.660Z,45.60
2018-04-23T06:01:31.152Z,46.30
2018-04-23T06:03:57.577Z,45.20
2018-04-23T06:06:24.830Z,45.30
2018-04-23T06:08:51.218Z,45.30
2018-04-23T06:11:17.622Z,45.10
2018-04-23T06:13:43.984Z,44.50
2018-04-23T06:16:11.200Z,44.40
2018-04-23T06:18:38.334Z,44.50
2018-04-23T06:21:04.752Z,44.50
2018-04-23T06:23:31.951Z,44.50
2018-04-23T06:25:58.391Z,44.40
2018-04-23T06:28:24.866Z,44.50
2018-04-23T06:30:51.296Z,44.50
2018-04-23T06:33:18.465Z,44.60
2018-04-23T06:35:44.892Z,44.60
2018-04-23T06:38:11.284Z,44.60
2018-04-23T06:40:37.664Z,44.60
2018-04-23T06:43:04.136Z,44.70
2018-04-23T06:45:30.535Z,44.70
2018-04-23T06:47:56.952Z,44.70
2018-04-23T06:50:23.333Z,44.80
2018-04-23T06:52:49.765Z,44.20
2018-04-23T06:55:16.132Z,44.10
2018-04-23T06:57:42.513Z,43.30
2018-04-23T07:00:08.945Z,43.90
2018-04-23T07:02:36.105Z,44.80
2018-04-23T07:05:02.595Z,44.80
2018-04-23T07:07:28.987Z,44.00
2018-04-23T07:09:56.133Z,44.70
2018-04-23T07:12:22.550Z,44.70
2018-04-23T07:14:48.965Z,44.70
2018-04-23T07:17:15.374Z,44.70
2018-04-23T07:19:41.796Z,44.80
2018-04-23T07:22:08.233Z,45.00
2018-04-23T07:24:34.670Z,44.80
2018-04-23T07:27:01.092Z,44.80
2018-04-23T07:29:27.486Z,44.90
2018-04-23T07:31:53.907Z,45.20
2018-04-23T07:34:21.155Z,45.80
2018-04-23T07:36:47.548Z,45.80
2018-04-23T07:39:13.948Z,46.30
2018-04-23T07:41:40.387Z,45.30
2018-04-23T07:44:06.784Z,45.20
2018-04-23T07:46:33.959Z,45.30
2018-04-23T07:49:00.389Z,45.30
2018-04-23T07:51:26.775Z,45.40
2018-04-23T07:53:53.204Z,45.40
2018-04-23T07:56:19.649Z,45.50
2018-04-23T07:58:46.057Z,45.50
2018-04-23T08:01:12.536Z,45.50
2018-04-23T08:03:38.962Z,46.10
2018-04-23T08:06:06.128Z,46.70
2018-04-23T08:08:33.337Z,47.70
2018-04-23T08:10:59.748Z,47.70
2018-04-23T08:13:26.172Z,47.60
2018-04-23T08:15:52.598Z,48.50
2018-04-23T08:18:19.671Z,48.90
2018-04-23T08:20:46.137Z,49.50
2018-04-23T08:23:12.558Z,49.70
2018-04-23T08:25:39.709Z,49.20
2018-04-23T08:28:06.900Z,50.30
2018-04-23T08:30:33.329Z,50.20
2018-04-23T08:32:59.740Z,50.80
2018-04-23T08:35:26.137Z,51.20
2018-04-23T08:37:52.540Z,51.00
2018-04-23T08:40:18.910Z,51.20
2018-04-23T08:42:45.344Z,53.40
2018-04-23T08:45:11.851Z,56.40
2018-04-23T08:47:38.360Z,58.80
2018-04-23T08:50:04.920Z,59.00
2018-04-23T08:52:31.361Z,61.80
2018-04-23T08:54:57.821Z,61.60
2018-04-23T08:57:24.212Z,61.50
2018-04-23T08:59:50.627Z,64.90
2018-04-23T09:02:17.087Z,66.10
2018-04-23T09:04:43.585Z,67.70
2018-04-23T09:07:10.047Z,67.90
2018-04-23T09:09:36.450Z,68.40
2018-04-23T09:12:02.916Z,67.60
2018-04-23T09:14:29.374Z,65.90
2018-04-23T09:16:56.545Z,63.70
2018-04-23T09:19:23.181Z,63.70
2018-04-23T09:21:49.650Z,62.30
2018-04-23T09:24:16.148Z,63.90
2018-04-23T09:26:43.593Z,64.30
2018-04-23T09:29:10.187Z,61.50
2018-04-23T09:31:36.760Z,60.00
2018-04-23T09:34:03.178Z,60.60
2018-04-23T09:36:29.595Z,60.80
2018-04-23T09:38:56.025Z,61.10
2018-04-23T09:41:22.400Z,63.20
2018-04-23T09:43:48.815Z,60.90
2018-04-23T09:46:15.335Z,61.50
2018-04-23T09:48:41.783Z,62.20
2018-04-23T09:51:08.284Z,62.40
2018-04-23T09:53:34.706Z,63.70
2018-04-23T09:56:01.170Z,62.70
2018-04-23T09:58:27.690Z,61.40
2018-04-23T10:00:54.216Z,59.90
2018-04-23T10:03:24.661Z,59.90
2018-04-23T10:05:51.910Z,58.00
2018-04-23T10:08:18.341Z,57.90
2018-04-23T10:10:44.845Z,59.10
2018-04-23T10:13:11.294Z,57.50
2018-04-23T10:15:37.744Z,61.50
2018-04-23T10:18:04.188Z,55.90
2018-04-23T10:20:30.579Z,55.30
2018-04-23T10:22:56.973Z,58.10
2018-04-23T10:25:23.356Z,55.20
2018-04-23T10:27:49.869Z,55.30
2018-04-23T10:30:16.269Z,54.60
2018-04-23T10:32:42.753Z,55.70
2018-04-23T10:35:09.932Z,58.30
2018-04-23T10:37:36.538Z,58.30
2018-04-23T10:40:03.109Z,62.30
2018-04-23T10:42:29.616Z,65.00
2018-04-23T10:44:56.737Z,73.10
2018-04-23T10:47:23.191Z,72.00
2018-04-23T10:49:50.334Z,74.10
2018-04-23T10:52:16.820Z,74.10
2018-04-23T10:54:43.295Z,80.00
2018-04-23T10:57:09.790Z,81.80
2018-04-23T10:59:37.150Z,79.00
2018-04-23T11:02:03.572Z,78.90
2018-04-23T11:04:30.060Z,78.80
2018-04-23T11:06:57.993Z,77.40
2018-04-23T11:09:24.440Z,77.30
2018-04-23T11:11:50.846Z,77.40
2018-04-23T11:14:17.337Z,73.50
2018-04-23T11:16:43.745Z,74.00
2018-04-23T11:19:10.236Z,74.30
2018-04-23T11:24:10.590Z,72.80
2018-04-23T11:26:36.979Z,72.80
2018-04-23T11:29:03.467Z,73.30
2018-04-23T11:31:29.850Z,70.90
2018-04-23T11:33:56.343Z,72.10
2018-04-23T11:36:23.532Z,73.50
2018-04-23T11:38:50.116Z,73.30
2018-04-23T11:41:17.377Z,75.20
2018-04-23T11:43:43.813Z,75.20
2018-04-23T11:46:11.016Z,74.30
2018-04-23T11:48:37.432Z,74.30
2018-04-23T11:51:03.926Z,76.10
2018-04-23T11:53:30.370Z,83.40
2018-04-23T11:55:57.540Z,78.50
2018-04-23T11:58:24.058Z,78.50
2018-04-23T12:00:51.214Z,80.50
2018-04-23T12:03:18.375Z,78.60
2018-04-23T12:05:44.806Z,78.60
2018-04-23T12:08:11.337Z,81.40
2018-04-23T12:10:37.821Z,81.30
2018-04-23T12:13:04.301Z,82.50
2018-04-23T12:15:30.745Z,81.50
2018-04-23T12:17:57.194Z,84.60
2018-04-23T12:20:24.040Z,82.70
2018-04-23T12:22:50.716Z,80.70
2018-04-23T12:25:17.175Z,81.70
2018-04-23T12:27:43.725Z,81.40
2018-04-23T12:30:10.275Z,82.40
2018-04-23T12:32:36.675Z,84.10
2018-04-23T12:35:03.157Z,90.40
2018-04-23T12:37:29.617Z,91.90
2018-04-23T12:39:56.772Z,92.20
2018-04-23T12:42:23.925Z,90.60
2018-04-23T12:44:50.339Z,90.60
2018-04-23T12:47:16.730Z,91.90
2018-04-23T12:49:43.127Z,92.30
2018-04-23T12:52:10.635Z,91.20
2018-04-23T12:54:37.087Z,91.80
2018-04-23T12:57:04.213Z,91.90
2018-04-23T12:59:30.721Z,92.00
2018-04-23T13:01:57.154Z,92.30
2018-04-23T13:04:23.616Z,92.30
2018-04-23T13:06:50.054Z,91.10
2018-04-23T13:09:16.544Z,90.40
2018-04-23T13:11:43.107Z,90.60
2018-04-23T13:14:09.516Z,90.60
2018-04-23T13:16:35.906Z,93.00
2018-04-23T13:19:03.041Z,92.90
2018-04-23T13:21:30.016Z,92.90
2018-04-23T13:23:56.475Z,92.60
2018-04-23T13:26:23.041Z,93.30
2018-04-23T13:28:50.157Z,88.00
2018-04-23T13:31:16.624Z,88.10
2018-04-23T13:33:43.065Z,93.00
2018-04-23T13:36:09.475Z,93.10
2018-04-23T13:38:35.927Z,92.70
2018-04-23T13:41:02.331Z,91.50
2018-04-23T13:43:28.741Z,88.50
2018-04-23T13:45:55.187Z,90.70
2018-04-23T13:48:21.602Z,88.50
2018-04-23T13:50:48.068Z,86.10
2018-04-23T13:53:14.492Z,85.10
2018-04-23T13:55:40.895Z,80.60
2018-04-23T13:58:07.404Z,77.50
2018-04-23T14:00:33.870Z,83.20
2018-04-23T14:03:00.270Z,80.80
2018-04-23T14:05:27.439Z,74.90
2018-04-23T14:07:54.901Z,74.90
2018-04-23T14:10:21.442Z,77.60
2018-04-23T14:12:47.860Z,76.00
2018-04-23T14:15:14.304Z,76.30
2018-04-23T14:17:41.455Z,76.40
2018-04-23T14:20:08.134Z,72.90
2018-04-23T14:22:34.575Z,71.50
2018-04-23T14:25:01.075Z,70.50
2018-04-23T14:27:27.520Z,69.00
2018-04-23T14:29:53.975Z,70.90
2018-04-23T14:32:20.395Z,72.10
2018-04-23T14:34:52.289Z,67.90
2018-04-23T14:37:19.661Z,68.00
2018-04-23T14:39:47.837Z,70.10
2018-04-23T14:42:14.839Z,68.90
2018-04-23T14:44:46.870Z,70.20
2018-04-23T14:47:13.258Z,70.10
2018-04-23T14:49:40.488Z,69.40
2018-04-23T14:52:07.694Z,67.40
2018-04-23T14:54:34.131Z,67.40
2018-04-23T14:57:00.566Z,64.00
2018-04-23T14:59:26.986Z,65.50
2018-04-23T15:01:53.506Z,64.70
2018-04-23T15:04:19.910Z,67.30
2018-04-23T15:06:46.448Z,65.70
2018-04-23T15:09:13.091Z,64.60
2018-04-23T15:11:39.562Z,64.00
2018-04-23T15:14:06.011Z,63.60
2018-04-23T15:16:33.156Z,65.00
2018-04-23T15:18:59.630Z,65.10
2018-04-23T15:21:26.037Z,67.90
2018-04-23T15:23:53.205Z,66.60
2018-04-23T15:26:19.619Z,66.60
2018-04-23T15:28:46.780Z,69.90
2018-04-23T15:31:13.994Z,69.00
2018-04-23T15:33:40.437Z,69.10
2018-04-23T15:36:06.882Z,70.90
2018-04-23T15:38:33.336Z,70.50
2018-04-23T15:40:59.824Z,69.60
2018-04-23T15:43:26.351Z,69.30
2018-04-23T15:45:53.582Z,72.20
2018-04-23T15:48:19.981Z,72.20
2018-04-23T15:50:46.448Z,71.10
2018-04-23T15:53:13.041Z,71.90
2018-04-23T15:55:39.532Z,72.10
2018-04-23T15:58:05.963Z,71.10
2018-04-23T16:00:32.457Z,71.20
2018-04-23T16:02:58.883Z,69.80
2018-04-23T16:05:25.317Z,70.60
2018-04-23T16:07:51.731Z,69.90
2018-04-23T16:10:18.226Z,70.50
2018-04-23T16:12:45.473Z,69.70
2018-04-23T16:15:11.891Z,69.70
2018-04-23T16:17:38.449Z,72.00
2018-04-23T16:20:14.939Z,71.50
2018-04-23T16:22:41.549Z,70.80
2018-04-23T16:25:08.067Z,70.30
2018-04-23T16:27:34.477Z,70.80
2018-04-23T16:30:01.101Z,71.50
2018-04-23T16:32:27.515Z,69.80
2018-04-23T16:34:54.695Z,70.20
2018-04-23T16:37:21.163Z,70.20
2018-04-23T16:39:47.627Z,69.40
2018-04-23T16:42:14.135Z,69.70
2018-04-23T16:44:40.538Z,70.00
2018-04-23T16:47:07.051Z,68.80
2018-04-23T16:49:33.439Z,67.60
2018-04-23T16:51:59.890Z,67.40
2018-04-23T16:54:26.361Z,68.10
2018-04-23T16:56:52.800Z,68.10
2018-04-23T16:59:19.238Z,66.90
2018-04-23T17:01:45.702Z,67.60
2018-04-23T17:04:12.252Z,68.00
2018-04-23T17:06:38.688Z,69.20
2018-04-23T17:09:06.145Z,68.50
2018-04-23T17:11:32.597Z,68.90
2018-04-23T17:13:59.016Z,66.80
2018-04-23T17:16:25.452Z,67.10
2018-04-23T17:18:52.643Z,67.20
2018-04-23T17:21:19.149Z,67.20
2018-04-23T17:23:45.627Z,66.90
2018-04-23T17:26:12.049Z,68.30
2018-04-23T17:28:38.515Z,66.80
2018-04-23T17:31:04.976Z,64.60
2018-04-23T17:33:31.409Z,65.70
2018-04-23T17:35:57.903Z,65.10
2018-04-23T17:38:24.400Z,64.60
2018-04-23T17:40:50.861Z,66.50
2018-04-23T17:43:17.322Z,64.00
2018-04-23T17:45:43.762Z,65.60
2018-04-23T17:48:11.090Z,64.60
2018-04-23T17:50:38.537Z,64.90
2018-04-23T17:53:05.001Z,64.10
2018-04-23T17:55:31.569Z,63.80
2018-04-23T17:57:58.055Z,64.40
2018-04-23T18:00:24.517Z,64.70
2018-04-23T18:02:50.952Z,66.50
2018-04-23T18:05:17.446Z,64.90
2018-04-23T18:07:43.936Z,65.80
2018-04-23T18:10:10.503Z,63.60
2018-04-23T18:12:36.957Z,64.60
2018-04-23T18:15:03.414Z,63.60
2018-04-23T18:17:30.665Z,64.40
2018-04-23T18:19:57.055Z,64.40
2018-04-23T18:22:23.766Z,64.10
2018-04-23T18:24:51.101Z,65.10
2018-04-23T18:27:17.703Z,65.00
2018-04-23T18:29:44.196Z,65.20
2018-04-23T18:32:17.660Z,65.90
2018-04-23T18:34:44.344Z,65.70
2018-04-23T18:37:10.837Z,65.20
2018-04-23T18:39:37.680Z,65.30
2018-04-23T18:42:04.248Z,65.20
2018-04-23T18:44:30.753Z,65.50
2018-04-23T18:46:58.224Z,65.80
2018-04-23T18:49:25.509Z,66.20
2018-04-23T18:51:52.020Z,66.20
2018-04-23T18:54:18.544Z,66.80
2018-04-23T18:56:45.135Z,66.90
2018-04-23T18:59:11.644Z,66.20
2018-04-23T19:01:39.215Z,66.60
2018-04-23T19:04:06.610Z,66.50
2018-04-23T19:06:33.330Z,66.50
2018-04-23T19:08:59.840Z,66.40
2018-04-23T19:11:26.344Z,66.40
2018-04-23T19:13:53.418Z,66.60
2018-04-23T19:16:19.995Z,66.80
2018-04-23T19:18:46.438Z,66.20
2018-04-23T19:21:14.059Z,66.30
2018-04-23T19:23:40.533Z,67.00
2018-04-23T19:26:07.171Z,66.40
2018-04-23T19:28:33.662Z,66.70
2018-04-23T19:31:00.307Z,67.30
2018-04-23T19:33:26.861Z,67.30
2018-04-23T19:35:53.333Z,67.20
2018-04-23T19:38:19.843Z,67.20
2018-04-23T19:40:46.334Z,67.50
2018-04-23T19:43:13.833Z,67.80
2018-04-23T19:45:40.370Z,68.30
2018-04-23T19:48:07.670Z,68.20
2018-04-23T19:50:34.173Z,68.20
2018-04-23T19:53:01.689Z,68.30
2018-04-23T19:55:28.431Z,68.20
2018-04-23T19:57:55.049Z,68.40
2018-04-23T20:00:21.522Z,67.30
2018-04-23T20:02:48.006Z,67.10
2018-04-23T20:05:14.570Z,68.20
2018-04-23T20:07:41.796Z,67.80
2018-04-23T20:10:08.318Z,67.80
2018-04-23T20:12:34.872Z,67.20
2018-04-23T20:15:01.367Z,67.60
2018-04-23T20:17:27.858Z,68.00
2018-04-23T20:19:54.316Z,67.50
2018-04-23T20:22:21.513Z,67.70
2018-04-23T20:24:47.986Z,67.70
2018-04-23T20:27:15.324Z,68.50
2018-04-23T20:29:42.577Z,70.40
2018-04-23T20:32:09.084Z,70.40
2018-04-23T20:34:35.673Z,70.30
2018-04-23T20:37:02.220Z,69.80
2018-04-23T20:39:28.797Z,70.40
2018-04-23T20:41:55.362Z,70.30
2018-04-23T20:44:21.899Z,70.10
2018-04-23T20:46:48.302Z,70.20
2018-04-23T20:49:14.875Z,70.20
2018-04-23T20:51:42.145Z,70.20
2018-04-23T20:54:08.585Z,70.10
2018-04-23T20:56:35.045Z,70.20
2018-04-23T20:59:03.635Z,70.20
2018-04-23T21:01:30.251Z,70.80
2018-04-23T21:03:56.697Z,71.50
2018-04-23T21:06:23.188Z,71.20
2018-04-23T21:08:51.321Z,71.80
2018-04-23T21:11:17.825Z,71.80
2018-04-23T21:13:44.306Z,72.60
2018-04-23T21:16:11.782Z,72.40
2018-04-23T21:18:38.962Z,72.60
2018-04-23T21:21:05.474Z,72.60
2018-04-23T21:23:31.964Z,72.50
2018-04-23T21:25:59.497Z,73.00
2018-04-23T21:28:25.972Z,74.10
2018-04-23T21:30:53.256Z,72.90
2018-04-23T21:33:19.729Z,72.90
2018-04-23T21:35:46.903Z,73.50
2018-04-23T21:38:14.128Z,73.80
2018-04-23T21:40:40.554Z,73.30
2018-04-23T21:43:07.145Z,73.10
2018-04-23T21:45:33.630Z,74.80
2018-04-23T21:48:00.779Z,76.50
2018-04-23T21:50:27.176Z,76.50
2018-04-23T21:52:53.600Z,76.90
2018-04-23T21:55:20.019Z,76.30
2018-04-23T21:57:46.448Z,76.40
2018-04-23T22:00:12.907Z,75.90
2018-04-23T22:02:39.435Z,74.90
2018-04-23T22:05:06.550Z,75.00
2018-04-23T22:07:40.748Z,73.90
2018-04-23T22:10:07.962Z,74.50
2018-04-23T22:12:34.410Z,74.50
2018-04-23T22:15:00.878Z,74.10
2018-04-23T22:17:27.269Z,74.90
2018-04-23T22:19:53.698Z,74.30
2018-04-23T22:22:20.108Z,74.60
2018-04-23T22:24:46.584Z,74.40
2018-04-23T22:27:13.066Z,74.90
2018-04-23T22:29:39.576Z,74.90
2018-04-23T22:32:06.001Z,75.30
2018-04-23T22:34:32.500Z,75.90
2018-04-23T22:36:58.988Z,76.20
2018-04-23T22:39:26.259Z,77.00
2018-04-23T22:41:52.792Z,77.00
2018-04-23T22:44:19.253Z,76.60
2018-04-23T22:46:45.694Z,76.70
2018-04-23T22:49:12.196Z,76.40
2018-04-23T22:51:38.576Z,76.70
2018-04-23T22:54:11.916Z,76.50
2018-04-23T22:56:38.336Z,76.10
2018-04-23T22:59:04.713Z,76.20
2018-04-23T23:01:31.183Z,76.10
2018-04-23T23:03:57.641Z,76.00
2018-04-23T23:06:24.082Z,76.20
2018-04-23T23:08:51.569Z,77.50
2018-04-23T23:11:18.787Z,77.00
2018-04-23T23:13:45.208Z,77.00
2018-04-23T23:16:12.153Z,76.90
2018-04-23T23:18:38.605Z,77.50
2018-04-23T23:21:05.013Z,77.70
2018-04-23T23:23:31.370Z,77.30
2018-04-23T23:25:57.941Z,77.50
2018-04-23T23:28:24.336Z,77.80
2018-04-23T23:30:50.728Z,78.10
2018-04-23T23:33:17.249Z,78.10
2018-04-23T23:35:43.649Z,78.50
2018-04-23T23:38:10.070Z,79.40
2018-04-23T23:40:36.497Z,79.20
2018-04-23T23:43:02.896Z,78.30
2018-04-23T23:45:29.305Z,78.00
2018-04-23T23:47:55.708Z,78.00
2018-04-23T23:50:22.296Z,78.00
2018-04-23T23:52:48.783Z,78.00
2018-04-23T23:55:15.922Z,77.10
2018-04-23T23:57:42.337Z,77.10
